Time;durP1;ratioP1;P1;durP2;ratioP2;P2;SDS_P1;SDS_P2;PMS_P1;PMS_P2;Temp;Humidity;BMP_temperature;BMP_pressure;BME280_temperature;BME280_humidity;BME280_pressure;Samples;Min_cycle;Max_cycle;Signal;HPM_P1;HPM_P2
2023/10/19 00:00:40;;;;;;;1.40;1.30;;;21.30;60.30;;;;;;5057589;28;20055;-39
2023/10/19 00:03:06;;;;;;;1.33;1.23;;;21.30;60.40;;;;;;5059996;28;20039;-40
2023/10/19 00:05:33;;;;;;;1.73;1.50;;;21.30;60.30;;;;;;5059791;28;20029;-40
2023/10/19 00:08:05;;;;;;;1.80;1.50;;;21.30;60.20;;;;;;5059820;28;20413;-39
2023/10/19 00:10:35;;;;;;;1.55;1.40;;;21.30;60.30;;;;;;5070005;28;20078;-39
2023/10/19 00:13:06;;;;;;;2.53;1.60;;;21.20;60.10;;;;;;5096033;28;20054;-39
2023/10/19 00:15:47;;;;;;;2.10;1.60;;;21.20;60.00;;;;;;5083839;28;20044;-39
2023/10/19 00:23:34;;;;;;;2.80;1.80;;;21.20;59.90;;;;;;5092319;28;20027;-39
2023/10/19 00:25:59;;;;;;;1.98;1.52;;;21.10;59.90;;;;;;5083417;28;20451;-39
2023/10/19 00:28:27;;;;;;;2.72;1.90;;;21.10;59.80;;;;;;5087196;28;20085;-40
2023/10/19 00:30:53;;;;;;;2.30;2.10;;;21.10;59.90;;;;;;5089455;28;20091;-40
2023/10/19 00:33:21;;;;;;;2.17;1.95;;;21.10;60.00;;;;;;5090933;28;20032;-40
2023/10/19 00:35:58;;;;;;;3.13;2.15;;;21.10;59.90;;;;;;5089568;28;20039;-39
2023/10/19 00:41:47;;;;;;;2.97;2.30;;;21.00;59.80;;;;;;5101176;28;20040;-39
2023/10/19 00:44:03;;;;;;;3.13;2.60;;;21.00;59.90;;;;;;5077079;28;20047;-40
2023/10/19 00:49:05;;;;;;;3.15;2.60;;;21.00;59.90;;;;;;5084566;28;20024;-39
2023/10/19 00:54:47;;;;;;;3.63;2.88;;;20.90;59.90;;;;;;5093871;28;20052;-39
2023/10/19 00:57:14;;;;;;;4.68;3.30;;;20.90;59.90;;;;;;5086888;28;20036;-40
2023/10/19 00:59:47;;;;;;;4.53;2.88;;;20.90;60.00;;;;;;5099887;28;20036;-39
2023/10/19 01:02:21;;;;;;;3.75;2.70;;;20.90;60.00;;;;;;5089237;28;20531;-39
2023/10/19 01:05:06;;;;;;;4.60;2.85;;;20.80;59.90;;;;;;5094432;28;20033;-39
2023/10/19 01:07:41;;;;;;;3.50;2.97;;;20.80;59.90;;;;;;5086435;28;20021;-39
2023/10/19 01:10:08;;;;;;;4.78;3.10;;;20.80;60.00;;;;;;5094054;28;20028;-39
2023/10/19 01:12:40;;;;;;;4.70;3.10;;;20.80;60.10;;;;;;5085757;28;20028;-39
2023/10/19 01:18:13;;;;;;;3.78;2.78;;;20.70;60.10;;;;;;5057707;28;20068;-39
2023/10/19 01:21:04;;;;;;;4.10;2.53;;;20.70;60.20;;;;;;5061366;28;20044;-39
2023/10/19 01:23:26;;;;;;;4.32;3.53;;;20.70;60.20;;;;;;5052907;28;20460;-39
2023/10/19 01:31:30;;;;;;;4.07;2.83;;;20.60;60.20;;;;;;5044544;28;20422;-39
2023/10/19 01:34:06;;;;;;;4.00;3.13;;;20.60;60.20;;;;;;5048796;28;20033;-39
2023/10/19 01:36:42;;;;;;;3.60;2.90;;;20.60;60.30;;;;;;5052421;28;20075;-39
2023/10/19 01:39:11;;;;;;;3.55;3.05;;;20.60;60.50;;;;;;5051379;28;20526;-39
2023/10/19 01:41:38;;;;;;;3.60;2.97;;;20.50;60.30;;;;;;5046433;28;20037;-39
2023/10/19 01:44:04;;;;;;;2.47;1.95;;;20.50;60.50;;;;;;5057654;28;20031;-39
2023/10/19 01:46:36;;;;;;;3.57;3.20;;;20.50;60.40;;;;;;5059160;28;20107;-40
2023/10/19 01:49:03;;;;;;;3.20;2.80;;;20.50;60.50;;;;;;5050932;28;20060;-39
2023/10/19 01:51:33;;;;;;;;;;;20.50;60.50;;;;;;5052746;28;20133;-40
2023/10/19 01:54:00;;;;;;;2.85;2.50;;;20.40;61.30;;;;;;5079996;28;19920;-39
2023/10/19 01:56:27;;;;;;;3.38;2.83;;;20.40;60.60;;;;;;5091787;28;20078;-39
2023/10/19 01:58:54;;;;;;;6.13;2.80;;;20.40;60.50;;;;;;5092133;28;20046;-39
2023/10/19 02:01:28;;;;;;;3.25;2.63;;;20.40;60.50;;;;;;5102834;28;20060;-39
2023/10/19 02:04:05;;;;;;;3.80;2.90;;;20.30;60.70;;;;;;5095742;28;20095;-38
2023/10/19 02:06:42;;;;;;;2.97;2.40;;;20.30;60.80;;;;;;5094184;28;20576;-38
2023/10/19 02:09:16;;;;;;;3.50;2.75;;;20.30;61.00;;;;;;5103054;28;20044;-39
2023/10/19 02:11:45;;;;;;;3.13;2.72;;;20.30;60.90;;;;;;5100903;28;20031;-39
2023/10/19 02:14:15;;;;;;;3.17;2.80;;;20.30;60.90;;;;;;5086488;28;20028;-39
2023/10/19 02:16:46;;;;;;;3.45;2.65;;;20.20;60.80;;;;;;5088507;28;20028;-39
2023/10/19 02:19:13;;;;;;;2.45;2.25;;;20.20;61.00;;;;;;5095739;28;20423;-38
2023/10/19 02:21:40;;;;;;;3.78;2.60;;;20.30;61.20;;;;;;5095011;28;20039;-39
2023/10/19 02:24:14;;;;;;;2.30;2.10;;;20.30;61.30;;;;;;5103225;28;20036;-39
2023/10/19 02:26:41;;;;;;;2.40;2.20;;;20.30;61.30;;;;;;5102889;28;20028;-39
2023/10/19 02:29:10;;;;;;;2.88;2.30;;;20.30;61.20;;;;;;5097720;28;20073;-39
2023/10/19 02:31:39;;;;;;;2.45;2.15;;;20.30;61.30;;;;;;5092706;28;20032;-39
2023/10/19 02:34:07;;;;;;;2.38;2.17;;;20.30;61.30;;;;;;5099044;28;20103;-39
2023/10/19 02:36:33;;;;;;;3.10;2.30;;;20.20;61.10;;;;;;5102634;28;20025;-39
2023/10/19 02:39:07;;;;;;;2.92;2.42;;;20.20;61.10;;;;;;5103062;28;20083;-39
2023/10/19 02:41:37;;;;;;;2.08;1.88;;;20.20;61.10;;;;;;5094253;28;20096;-39
2023/10/19 02:46:34;;;;;;;2.78;2.20;;;20.20;61.50;;;;;;5101385;28;20092;-40
2023/10/19 02:49:04;;;;;;;2.65;1.92;;;20.20;61.60;;;;;;5096929;28;20024;-40
2023/10/19 02:51:33;;;;;;;2.20;1.83;;;20.20;61.50;;;;;;5094281;28;20099;-40
2023/10/19 02:54:02;;;;;;;2.20;2.00;;;20.20;61.40;;;;;;5095942;28;20496;-40
2023/10/19 02:56:29;;;;;;;3.03;2.15;;;20.20;61.40;;;;;;5094744;28;20066;-38
2023/10/19 02:59:02;;;;;;;2.53;2.10;;;20.20;61.50;;;;;;5101887;28;20073;-39
2023/10/19 03:01:38;;;;;;;2.30;1.88;;;20.10;61.30;;;;;;5088489;28;20571;-39
2023/10/19 03:04:05;;;;;;;2.42;1.85;;;20.10;62.10;;;;;;5102822;28;20032;-39
2023/10/19 03:06:35;;;;;;;2.50;2.05;;;20.10;61.30;;;;;;5101572;28;20500;-39
2023/10/19 03:09:11;;;;;;;2.28;1.77;;;20.10;61.50;;;;;;5100882;28;20042;-40
2023/10/19 03:11:38;;;;;;;2.05;1.85;;;20.20;61.80;;;;;;5100639;28;20131;-39
2023/10/19 03:14:05;;;;;;;2.53;1.75;;;20.20;61.90;;;;;;5098162;28;20040;-39
2023/10/19 03:16:31;;;;;;;3.22;1.80;;;20.20;61.60;;;;;;5085515;28;20032;-39
2023/10/19 03:18:58;;;;;;;2.10;1.80;;;20.20;61.50;;;;;;5096755;28;20077;-39
2023/10/19 03:21:26;;;;;;;2.03;1.80;;;20.10;61.50;;;;;;5100153;28;20032;-40
2023/10/19 03:23:56;;;;;;;2.28;1.83;;;20.10;61.50;;;;;;5096250;28;20032;-39
2023/10/19 03:29:53;;;;;;;2.05;1.83;;;20.10;61.40;;;;;;5086063;28;20032;-39
2023/10/19 03:31:47;;;;;;;2.20;1.80;;;20.00;61.30;;;;;;5086001;28;20040;-39
2023/10/19 03:34:13;;;;;;;2.20;1.53;;;20.10;61.80;;;;;;5088317;28;20033;-39
2023/10/19 03:36:40;;;;;;;2.03;1.73;;;20.20;61.90;;;;;;5102189;28;20963;-39
2023/10/19 03:39:13;;;;;;;1.97;1.77;;;20.20;61.70;;;;;;5102777;28;20032;-39
2023/10/19 03:41:44;;;;;;;2.47;1.98;;;20.10;61.50;;;;;;5095375;28;20095;-39
2023/10/19 03:44:24;;;;;;;1.85;1.70;;;20.10;61.50;;;;;;5099875;28;20150;-39
2023/10/19 03:46:53;;;;;;;2.30;2.10;;;20.10;61.50;;;;;;5095562;28;20527;-39
2023/10/19 03:49:20;;;;;;;2.05;1.85;;;20.00;61.40;;;;;;5093749;28;20049;-39
2023/10/19 03:52:02;;;;;;;2.00;1.77;;;20.00;61.30;;;;;;5094986;28;20764;-39
2023/10/19 03:54:33;;;;;;;2.10;1.83;;;20.00;61.60;;;;;;5092392;28;20074;-39
2023/10/19 03:57:05;;;;;;;1.88;1.70;;;20.10;61.90;;;;;;5096763;28;20024;-39
2023/10/19 03:59:34;;;;;;;1.80;1.50;;;20.10;61.70;;;;;;5095239;28;20028;-39
2023/10/19 04:02:07;;;;;;;1.92;1.73;;;20.10;61.60;;;;;;5089281;28;20024;-39
2023/10/19 04:04:33;;;;;;;2.20;1.92;;;20.10;61.50;;;;;;5091663;28;20060;-39
2023/10/19 04:06:59;;;;;;;2.22;2.03;;;20.10;61.50;;;;;;5084801;28;20024;-39
2023/10/19 04:09:29;;;;;;;2.38;1.73;;;20.00;61.50;;;;;;5092355;28;20025;-38
2023/10/19 04:11:59;;;;;;;2.42;1.75;;;20.00;61.40;;;;;;5098165;28;20025;-39
2023/10/19 04:14:30;;;;;;;1.50;1.40;;;20.00;61.50;;;;;;5086037;28;20036;-39
2023/10/19 04:16:56;;;;;;;2.20;1.95;;;20.00;61.80;;;;;;5096514;28;20031;-39
2023/10/19 04:19:22;;;;;;;1.95;1.80;;;20.10;62.00;;;;;;5098675;28;20032;-39
2023/10/19 04:21:50;;;;;;;1.77;1.50;;;20.20;61.80;;;;;;5094518;28;20110;-38
2023/10/19 04:24:19;;;;;;;1.85;1.55;;;20.10;61.50;;;;;;5093626;28;20473;-39
2023/10/19 04:26:45;;;;;;;1.92;1.70;;;20.10;61.50;;;;;;5087912;28;20059;-39
2023/10/19 04:29:11;;;;;;;1.77;1.67;;;20.00;61.40;;;;;;5088342;28;20024;-39
2023/10/19 04:31:49;;;;;;;1.80;1.60;;;20.00;61.40;;;;;;5095539;28;20103;-39
2023/10/19 04:34:20;;;;;;;1.90;1.70;;;20.00;61.50;;;;;;5101932;28;20541;-40
2023/10/19 04:36:49;;;;;;;2.05;1.85;;;20.00;61.70;;;;;;5098360;28;20031;-39
2023/10/19 04:39:19;;;;;;;1.90;1.65;;;20.10;61.90;;;;;;5104337;28;20038;-39
2023/10/19 04:41:45;;;;;;;2.08;1.55;;;20.10;61.90;;;;;;5097893;28;20048;-39
2023/10/19 04:44:12;;;;;;;2.27;1.70;;;20.10;61.50;;;;;;5098338;28;20082;-39
2023/10/19 04:46:38;;;;;;;1.77;1.67;;;20.00;61.50;;;;;;5095413;28;20032;-39
2023/10/19 04:49:04;;;;;;;2.22;2.03;;;20.00;62.20;;;;;;5093651;28;20028;-39
2023/10/19 04:51:30;;;;;;;2.27;1.90;;;20.00;61.50;;;;;;5088818;28;20130;-39
2023/10/19 04:53:56;;;;;;;2.80;1.80;;;20.00;61.60;;;;;;5094170;28;20080;-39
2023/10/19 04:56:22;;;;;;;2.20;1.90;;;20.00;61.80;;;;;;5089624;28;20431;-39
2023/10/19 04:58:49;;;;;;;1.98;1.60;;;20.10;62.00;;;;;;5097048;28;20028;-39
2023/10/19 05:01:15;;;;;;;1.60;1.50;;;20.10;61.80;;;;;;5090572;28;20095;-39
2023/10/19 05:03:42;;;;;;;2.43;1.80;;;20.10;61.60;;;;;;5103980;28;20088;-39
2023/10/19 05:06:09;;;;;;;1.83;1.70;;;20.10;61.50;;;;;;5098151;28;20028;-38
2023/10/19 05:08:36;;;;;;;2.00;1.80;;;20.00;61.50;;;;;;5089142;28;20055;-39
2023/10/19 05:11:03;;;;;;;1.52;1.42;;;20.00;61.40;;;;;;5097475;28;20032;-39
2023/10/19 05:13:31;;;;;;;2.83;1.67;;;20.00;61.40;;;;;;5086788;28;20153;-39
2023/10/19 05:15:58;;;;;;;1.88;1.77;;;19.90;61.50;;;;;;5099346;28;20099;-39
2023/10/19 05:18:25;;;;;;;1.60;1.40;;;20.00;61.80;;;;;;5090446;28;20041;-39
2023/10/19 05:20:55;;;;;;;2.33;1.98;;;20.10;61.90;;;;;;5094433;28;20036;-39
2023/10/19 05:23:24;;;;;;;1.70;1.60;;;20.10;61.70;;;;;;5086782;28;20052;-40
2023/10/19 05:26:00;;;;;;;1.90;1.70;;;20.10;61.50;;;;;;5094212;28;20031;-40
2023/10/19 05:28:26;;;;;;;2.03;1.83;;;20.00;61.50;;;;;;5087918;28;20055;-39
2023/10/19 05:30:52;;;;;;;2.47;1.70;;;20.00;61.40;;;;;;5094866;28;20381;-39
2023/10/19 05:33:23;;;;;;;2.05;1.83;;;20.00;61.30;;;;;;5098901;28;20058;-39
2023/10/19 05:35:49;;;;;;;2.03;1.75;;;19.90;61.20;;;;;;5089096;28;20053;-39
2023/10/19 05:38:16;;;;;;;1.85;1.48;;;19.90;61.50;;;;;;5103611;28;20539;-40
2023/10/19 05:40:43;;;;;;;1.80;1.70;;;20.00;61.90;;;;;;5093444;28;20707;-40
2023/10/19 05:43:09;;;;;;;2.90;1.73;;;20.10;61.90;;;;;;5092377;28;20060;-39
2023/10/19 05:45:38;;;;;;;2.00;1.50;;;20.10;61.70;;;;;;5094003;28;20158;-39
2023/10/19 05:48:06;;;;;;;1.92;1.73;;;20.10;61.50;;;;;;5099794;28;20046;-39
2023/10/19 05:50:35;;;;;;;2.33;1.70;;;20.00;61.30;;;;;;5095571;28;20684;-39
2023/10/19 05:53:03;;;;;;;1.90;1.70;;;20.00;61.30;;;;;;5090495;28;20050;-39
2023/10/19 05:55:29;;;;;;;1.70;1.48;;;20.00;61.20;;;;;;5092566;28;20093;-39
2023/10/19 05:57:56;;;;;;;1.63;1.52;;;20.00;61.20;;;;;;5098047;28;20044;-39
2023/10/19 06:00:25;;;;;;;1.52;1.42;;;20.00;61.50;;;;;;5095372;28;20032;-39
2023/10/19 06:02:51;;;;;;;1.80;1.70;;;20.00;61.80;;;;;;5103891;28;20077;-40
2023/10/19 06:05:18;;;;;;;2.53;1.92;;;20.10;61.60;;;;;;5093919;28;20032;-39
2023/10/19 06:07:45;;;;;;;1.70;1.60;;;20.00;61.40;;;;;;5086751;28;20025;-39
2023/10/19 06:10:15;;;;;;;;;;;20.00;61.20;;;;;;5101376;28;20039;-38
2023/10/19 06:12:43;;;;;;;2.00;1.77;;;19.90;61.20;;;;;;5100225;28;19908;-38
2023/10/19 06:15:10;;;;;;;2.25;1.77;;;19.90;61.20;;;;;;5093161;28;20056;-39
2023/10/19 06:17:40;;;;;;;1.70;1.60;;;19.90;61.20;;;;;;5101463;28;20027;-38
2023/10/19 06:20:08;;;;;;;1.83;1.63;;;19.90;61.50;;;;;;5103556;28;20114;-38
2023/10/19 06:22:37;;;;;;;1.88;1.30;;;20.00;62.30;;;;;;5093575;28;20103;-39
2023/10/19 06:25:07;;;;;;;3.00;2.03;;;20.10;61.60;;;;;;5093161;28;20093;-39
2023/10/19 06:27:33;;;;;;;2.85;1.67;;;20.10;61.50;;;;;;5102350;28;20722;-39
2023/10/19 06:29:59;;;;;;;1.88;1.75;;;20.00;61.20;;;;;;5101948;28;20023;-38
2023/10/19 06:32:26;;;;;;;1.80;1.70;;;20.00;61.20;;;;;;5095104;28;20123;-39
2023/10/19 06:34:53;;;;;;;3.50;1.60;;;19.90;61.10;;;;;;5102862;28;20028;-39
2023/10/19 06:37:19;;;;;;;1.80;1.70;;;19.90;61.10;;;;;;5088963;28;20536;-39
2023/10/19 06:39:45;;;;;;;1.83;1.60;;;19.90;61.30;;;;;;5103353;28;20035;-39
2023/10/19 06:42:13;;;;;;;1.67;1.35;;;19.90;61.50;;;;;;5101269;28;20044;-39
2023/10/19 06:44:44;;;;;;;1.65;1.50;;;20.00;61.60;;;;;;5102234;28;20162;-39
2023/10/19 06:47:10;;;;;;;2.92;1.80;;;20.00;61.50;;;;;;5096100;28;20103;-39
2023/10/19 06:49:37;;;;;;;1.52;1.42;;;20.00;61.20;;;;;;5101839;28;20093;-38
2023/10/19 06:52:04;;;;;;;2.00;1.80;;;20.00;61.10;;;;;;5097079;28;20052;-39
2023/10/19 06:54:32;;;;;;;2.03;1.67;;;19.90;61.00;;;;;;5093144;28;20024;-39
2023/10/19 06:56:58;;;;;;;;;;;19.90;61.00;;;;;;5104086;28;20135;-39
2023/10/19 06:59:24;;;;;;;1.70;1.60;;;19.90;61.20;;;;;;5099778;28;19937;-40
2023/10/19 07:01:51;;;;;;;1.73;1.50;;;19.90;61.30;;;;;;5092000;28;20029;-40
2023/10/19 07:04:17;;;;;;;1.90;1.67;;;20.00;61.50;;;;;;5099575;28;20384;-39
2023/10/19 07:06:44;;;;;;;3.15;1.60;;;20.00;61.40;;;;;;5095427;28;20036;-40
2023/10/19 07:09:10;;;;;;;1.73;1.63;;;20.00;61.10;;;;;;5103155;28;20032;-39
2023/10/19 07:11:36;;;;;;;2.60;1.80;;;20.00;61.10;;;;;;5101938;28;20190;-39
2023/10/19 07:14:06;;;;;;;2.22;1.70;;;19.90;61.00;;;;;;5102171;28;20028;-39
2023/10/19 07:16:32;;;;;;;2.50;1.80;;;19.90;60.90;;;;;;5101132;28;20050;-40
2023/10/19 07:18:59;;;;;;;1.65;1.52;;;19.90;61.00;;;;;;5101050;28;20032;-39
2023/10/19 07:21:25;;;;;;;2.60;1.70;;;19.90;61.10;;;;;;5093665;28;20060;-39
2023/10/19 07:23:53;;;;;;;2.05;1.50;;;19.90;61.20;;;;;;5096062;28;20069;-40
2023/10/19 07:26:21;;;;;;;2.80;1.80;;;20.00;61.40;;;;;;5093882;28;20039;-40
2023/10/19 07:28:47;;;;;;;2.00;1.80;;;20.00;61.30;;;;;;5096009;28;20059;-40
2023/10/19 07:31:15;;;;;;;1.70;1.60;;;20.00;61.10;;;;;;5102031;28;20055;-39
2023/10/19 07:33:45;;;;;;;1.70;1.60;;;20.00;60.90;;;;;;5094482;28;20055;-40
2023/10/19 07:36:14;;;;;;;2.40;1.70;;;19.90;60.90;;;;;;5102958;28;20050;-40
2023/10/19 07:38:42;;;;;;;2.08;1.88;;;19.90;61.10;;;;;;5094041;28;20024;-39
2023/10/19 07:41:09;;;;;;;2.03;1.80;;;19.90;60.90;;;;;;5102035;28;20078;-39
2023/10/19 07:43:36;;;;;;;2.17;1.92;;;19.90;61.10;;;;;;5086668;28;20067;-39
2023/10/19 07:46:03;;;;;;;1.55;1.45;;;19.90;61.20;;;;;;5095848;28;20032;-39
2023/10/19 07:48:29;;;;;;;2.15;1.92;;;20.00;61.30;;;;;;5100049;28;20039;-39
2023/10/19 07:50:55;;;;;;;3.15;1.85;;;20.00;61.10;;;;;;5101840;28;20106;-40
2023/10/19 07:53:24;;;;;;;2.80;1.75;;;20.00;60.90;;;;;;5101120;28;20454;-40
2023/10/19 07:55:50;;;;;;;2.42;1.67;;;19.90;60.80;;;;;;5101209;28;20492;-39
2023/10/19 07:58:16;;;;;;;2.10;1.90;;;19.90;60.70;;;;;;5088246;28;20058;-40
2023/10/19 08:00:44;;;;;;;1.88;1.63;;;19.90;60.70;;;;;;5094740;28;20088;-40
2023/10/19 08:03:13;;;;;;;1.80;1.50;;;19.90;61.00;;;;;;5094947;28;20037;-40
2023/10/19 08:05:39;;;;;;;1.77;1.60;;;19.90;61.20;;;;;;5092965;28;20111;-40
2023/10/19 08:08:05;;;;;;;1.80;1.60;;;20.00;61.20;;;;;;5102024;28;20035;-40
2023/10/19 08:10:31;;;;;;;2.58;2.17;;;20.00;61.10;;;;;;5093980;28;20033;-40
2023/10/19 08:12:58;;;;;;;1.67;1.45;;;20.00;60.80;;;;;;5095664;28;20092;-40
2023/10/19 08:15:26;;;;;;;2.55;1.90;;;19.90;60.60;;;;;;5093901;28;20121;-40
2023/10/19 08:17:54;;;;;;;3.10;1.83;;;19.90;60.60;;;;;;5097489;28;20695;-39
2023/10/19 08:20:23;;;;;;;2.42;1.88;;;19.90;60.60;;;;;;5091266;28;20039;-39
2023/10/19 08:22:53;;;;;;;2.60;1.75;;;19.90;60.90;;;;;;5094679;28;20107;-39
2023/10/19 08:25:20;;;;;;;1.70;1.60;;;19.90;61.10;;;;;;5084889;28;20460;-39
2023/10/19 08:27:50;;;;;;;2.35;1.83;;;20.00;61.20;;;;;;5091655;28;20099;-39
2023/10/19 08:30:17;;;;;;;1.85;1.67;;;20.00;61.10;;;;;;5085445;28;20483;-39
2023/10/19 08:32:47;;;;;;;3.25;1.60;;;20.00;60.90;;;;;;5094219;28;20020;-39
2023/10/19 08:35:20;;;;;;;2.08;1.80;;;19.90;60.60;;;;;;5093992;28;20099;-39
2023/10/19 08:37:48;;;;;;;1.83;1.70;;;19.90;60.60;;;;;;5094200;28;20032;-39
2023/10/19 08:40:18;;;;;;;2.53;1.83;;;19.90;60.60;;;;;;5101297;28;20040;-39
2023/10/19 08:42:48;;;;;;;2.10;1.88;;;19.80;60.70;;;;;;5089540;28;20044;-40
2023/10/19 08:45:14;;;;;;;1.83;1.73;;;19.90;61.00;;;;;;5090678;28;20029;-40
2023/10/19 08:47:57;;;;;;;2.07;1.70;;;19.90;61.10;;;;;;5100931;28;20028;-40
2023/10/19 08:50:28;;;;;;;2.08;1.80;;;20.00;61.00;;;;;;5105659;28;20038;-39
2023/10/19 08:52:56;;;;;;;1.75;1.60;;;20.00;60.60;;;;;;5092541;28;20024;-40
2023/10/19 08:55:22;;;;;;;1.83;1.67;;;19.90;60.60;;;;;;5093054;28;20063;-40
2023/10/19 08:57:51;;;;;;;2.40;1.77;;;19.90;60.50;;;;;;5084683;28;20032;-38
2023/10/19 09:00:18;;;;;;;2.85;1.73;;;19.80;60.40;;;;;;5090258;28;20033;-39
2023/10/19 09:02:47;;;;;;;2.38;1.70;;;19.80;61.40;;;;;;5087034;28;20032;-39
2023/10/19 09:05:22;;;;;;;1.60;1.50;;;19.90;61.70;;;;;;5101451;28;20470;-40
2023/10/19 09:07:54;;;;;;;2.13;1.90;;;19.90;61.00;;;;;;5087440;28;20042;-39
2023/10/19 09:10:25;;;;;;;2.20;1.70;;;20.00;61.70;;;;;;5092751;28;20052;-39
2023/10/19 09:13:07;;;;;;;1.80;1.45;;;19.90;60.40;;;;;;5097383;28;20085;-39
2023/10/19 09:15:34;;;;;;;1.77;1.67;;;19.90;60.40;;;;;;5099332;28;20130;-40
2023/10/19 09:18:16;;;;;;;2.00;1.80;;;19.80;60.30;;;;;;5097589;28;20031;-40
2023/10/19 09:20:53;;;;;;;1.70;1.60;;;19.80;60.30;;;;;;5101588;28;20029;-40
2023/10/19 09:23:23;;;;;;;1.98;1.77;;;19.80;60.50;;;;;;5094410;28;20191;-40
2023/10/19 09:25:55;;;;;;;1.67;1.58;;;19.80;60.70;;;;;;5100454;28;20040;-40
2023/10/19 09:28:23;;;;;;;3.40;1.73;;;19.90;60.80;;;;;;5100378;28;20047;-40
2023/10/19 09:30:50;;;;;;;2.45;1.50;;;19.90;60.80;;;;;;5096626;28;20058;-40
2023/10/19 09:33:17;;;;;;;1.50;1.40;;;19.90;60.50;;;;;;5096555;28;20036;-40
2023/10/19 09:35:48;;;;;;;2.00;1.80;;;19.90;60.30;;;;;;5103144;28;20087;-40
2023/10/19 09:38:21;;;;;;;3.42;1.90;;;19.80;60.20;;;;;;5096790;28;20027;-40
2023/10/19 09:40:51;;;;;;;2.17;1.65;;;19.80;60.30;;;;;;5096870;28;20036;-40
2023/10/19 09:43:38;;;;;;;3.28;1.70;;;19.80;60.50;;;;;;5103634;28;20036;-40
2023/10/19 09:46:09;;;;;;;1.60;1.50;;;19.90;60.70;;;;;;5098149;28;20032;-39
2023/10/19 09:48:42;;;;;;;2.67;1.73;;;19.90;60.90;;;;;;5100757;28;20119;-40
2023/10/19 09:51:09;;;;;;;1.80;1.60;;;19.90;60.70;;;;;;5097797;28;20036;-39
2023/10/19 09:53:37;;;;;;;2.15;1.67;;;19.90;60.50;;;;;;5094575;28;20046;-40
2023/10/19 09:56:06;;;;;;;2.88;1.70;;;19.90;60.30;;;;;;5094887;28;20055;-40
2023/10/19 09:58:51;;;;;;;3.72;1.70;;;19.80;60.10;;;;;;5094077;28;20036;-40
2023/10/19 10:01:21;;;;;;;2.80;1.90;;;19.80;60.20;;;;;;5098495;28;20063;-40
2023/10/19 10:03:54;;;;;;;2.92;1.80;;;19.80;60.50;;;;;;5088467;28;20028;-40
2023/10/19 10:06:52;;;;;;;2.70;1.95;;;19.80;60.60;;;;;;5103549;28;20055;-40
2023/10/19 10:09:21;;;;;;;2.00;1.80;;;19.90;60.80;;;;;;5100233;28;20032;-40
2023/10/19 10:11:53;;;;;;;2.13;1.90;;;19.90;60.50;;;;;;5086863;28;20024;-40
2023/10/19 10:14:33;;;;;;;2.10;1.80;;;19.90;60.20;;;;;;5099146;28;20059;-39
2023/10/19 10:17:05;;;;;;;3.63;1.90;;;19.90;60.20;;;;;;5098360;28;20032;-39
2023/10/19 10:19:31;;;;;;;2.28;2.08;;;19.80;60.00;;;;;;5100064;28;20143;-39
2023/10/19 10:22:24;;;;;;;3.97;1.97;;;19.80;60.00;;;;;;5089274;28;20035;-39
2023/10/19 10:24:57;;;;;;;2.15;1.70;;;19.80;60.30;;;;;;5089896;28;20035;-39
2023/10/19 10:27:23;;;;;;;3.63;1.80;;;19.90;60.60;;;;;;5092026;28;20037;-39
2023/10/19 10:29:59;;;;;;;1.43;1.33;;;19.90;60.60;;;;;;5090215;28;20520;-39
2023/10/19 10:32:54;;;;;;;1.83;1.70;;;20.00;60.50;;;;;;5085670;28;20029;-39
2023/10/19 10:35:38;;;;;;;1.90;1.55;;;19.90;60.10;;;;;;5101794;28;20048;-39
2023/10/19 10:38:14;;;;;;;1.90;1.70;;;19.90;60.00;;;;;;5089219;28;20030;-40
2023/10/19 10:40:50;;;;;;;1.90;1.70;;;19.80;59.90;;;;;;5093031;28;20101;-40
2023/10/19 10:43:17;;;;;;;1.70;1.60;;;19.70;60.00;;;;;;5084826;28;20043;-40
2023/10/19 10:45:43;;;;;;;2.00;1.80;;;19.80;60.30;;;;;;5089050;28;20051;-40
2023/10/19 10:48:17;;;;;;;2.10;1.70;;;19.90;60.60;;;;;;5095420;28;20035;-40
2023/10/19 10:50:45;;;;;;;2.03;1.60;;;19.90;60.30;;;;;;5091454;28;20116;-39
2023/10/19 10:53:12;;;;;;;2.30;1.63;;;19.90;60.20;;;;;;5092610;28;20050;-39
2023/10/19 10:55:41;;;;;;;2.10;1.83;;;19.90;60.00;;;;;;5093185;28;20102;-39
2023/10/19 10:58:07;;;;;;;2.35;1.98;;;19.80;59.90;;;;;;5100868;28;20048;-40
2023/10/19 11:00:34;;;;;;;2.72;2.10;;;19.80;59.90;;;;;;5093984;28;20046;-40
2023/10/19 11:03:03;;;;;;;1.58;1.42;;;19.80;60.10;;;;;;5096286;28;20083;-40
2023/10/19 11:05:31;;;;;;;2.10;1.77;;;19.80;60.30;;;;;;5102283;28;20082;-40
2023/10/19 11:08:13;;;;;;;2.20;1.75;;;19.90;60.40;;;;;;5084834;28;20129;-40
2023/10/19 11:10:42;;;;;;;2.22;1.83;;;19.90;61.10;;;;;;5094492;28;20088;-40
2023/10/19 11:13:09;;;;;;;1.98;1.70;;;19.90;60.10;;;;;;5095328;28;20058;-40
2023/10/19 11:15:39;;;;;;;2.17;1.80;;;19.90;59.90;;;;;;5099120;28;20039;-39
2023/10/19 11:18:09;;;;;;;2.10;1.90;;;19.80;59.80;;;;;;5088023;28;20036;-39
2023/10/19 11:20:35;;;;;;;2.03;1.83;;;19.80;59.80;;;;;;5098947;28;20067;-39
2023/10/19 11:23:02;;;;;;;2.00;1.70;;;19.70;60.00;;;;;;5090999;28;20031;-40
2023/10/19 11:25:30;;;;;;;2.17;1.77;;;19.80;60.20;;;;;;5098495;28;20091;-40
2023/10/19 11:27:56;;;;;;;2.05;1.75;;;19.90;60.40;;;;;;5093854;28;20028;-40
2023/10/19 11:30:31;;;;;;;1.77;1.42;;;19.90;60.30;;;;;;5083712;28;20043;-40
2023/10/19 11:32:57;;;;;;;2.47;1.75;;;19.90;60.10;;;;;;5096405;28;20867;-40
2023/10/19 11:35:24;;;;;;;2.30;1.88;;;19.90;59.80;;;;;;5102213;28;20044;-40
2023/10/19 11:37:54;;;;;;;2.10;1.90;;;19.80;59.70;;;;;;5094094;28;20028;-40
2023/10/19 11:40:25;;;;;;;2.13;1.70;;;19.70;59.70;;;;;;5100270;28;20042;-40
2023/10/19 11:42:51;;;;;;;1.60;1.50;;;19.80;60.00;;;;;;5102245;28;20048;-40
2023/10/19 11:45:18;;;;;;;3.05;1.40;;;19.80;60.20;;;;;;5086544;28;20035;-40
2023/10/19 11:47:45;;;;;;;1.73;1.58;;;19.90;60.30;;;;;;5091625;28;20075;-40
2023/10/19 11:50:19;;;;;;;2.05;1.67;;;19.90;60.10;;;;;;5094776;28;20025;-40
2023/10/19 11:52:48;;;;;;;2.20;1.98;;;19.90;59.90;;;;;;5084046;28;20056;-40
2023/10/19 11:55:14;;;;;;;2.10;1.88;;;19.80;59.80;;;;;;5092128;28;20105;-40
2023/10/19 11:57:44;;;;;;;2.42;1.33;;;19.80;59.70;;;;;;5093470;28;20032;-40
2023/10/19 12:00:23;;;;;;;2.03;1.75;;;19.70;59.70;;;;;;5094781;28;20036;-40
2023/10/19 12:02:50;;;;;;;2.20;1.80;;;19.80;59.90;;;;;;5083934;28;20033;-40
2023/10/19 12:05:16;;;;;;;3.07;1.73;;;19.80;60.10;;;;;;5098547;28;20031;-39
2023/10/19 12:07:44;;;;;;;2.42;1.60;;;19.90;60.20;;;;;;5087201;28;20036;-40
2023/10/19 12:10:12;;;;;;;2.50;1.95;;;19.90;60.00;;;;;;5094321;28;20062;-40
2023/10/19 12:12:38;;;;;;;2.47;1.90;;;19.90;59.70;;;;;;5091412;28;20028;-39
2023/10/19 12:15:08;;;;;;;2.25;1.98;;;19.80;59.60;;;;;;5091751;28;20041;-39
2023/10/19 12:17:34;;;;;;;2.22;1.90;;;19.70;59.60;;;;;;5083825;28;20024;-39
2023/10/19 12:20:00;;;;;;;2.42;1.50;;;19.80;59.70;;;;;;5095182;28;20043;-39
2023/10/19 12:22:31;;;;;;;2.30;1.75;;;19.80;59.90;;;;;;5092736;28;20028;-39
2023/10/19 12:24:58;;;;;;;2.50;1.60;;;19.80;60.10;;;;;;5089065;28;20092;-39
2023/10/19 12:27:28;;;;;;;1.60;1.50;;;19.90;60.10;;;;;;5091545;28;20052;-39
2023/10/19 12:29:54;;;;;;;3.25;1.80;;;19.90;59.90;;;;;;5084893;28;20032;-39
2023/10/19 12:32:21;;;;;;;1.70;1.55;;;19.90;59.80;;;;;;5091604;28;20032;-39
2023/10/19 12:34:56;;;;;;;1.85;1.67;;;19.80;59.70;;;;;;5095855;28;20555;-38
2023/10/19 12:37:22;;;;;;;2.70;1.73;;;19.80;59.60;;;;;;5085632;28;20037;-39
2023/10/19 12:39:49;;;;;;;1.98;1.55;;;19.70;59.60;;;;;;5087733;28;20039;-40
2023/10/19 12:42:15;;;;;;;2.10;1.67;;;19.80;59.90;;;;;;5094322;28;20790;-40
2023/10/19 12:44:43;;;;;;;2.33;1.92;;;19.80;60.10;;;;;;5083965;28;20036;-40
2023/10/19 12:47:17;;;;;;;1.65;1.55;;;19.90;60.20;;;;;;5083965;28;20044;-40
2023/10/19 12:49:45;;;;;;;1.90;1.67;;;19.90;59.90;;;;;;5091161;28;20108;-40
2023/10/19 12:52:11;;;;;;;2.53;1.88;;;19.90;59.80;;;;;;5085654;28;20028;-40
2023/10/19 12:54:37;;;;;;;2.38;1.83;;;19.80;59.60;;;;;;5088338;28;20031;-39
2023/10/19 12:57:07;;;;;;;2.30;1.70;;;19.70;59.60;;;;;;5093504;28;20084;-39
2023/10/19 12:59:39;;;;;;;2.30;1.50;;;19.80;59.70;;;;;;5090292;28;20036;-39
2023/10/19 13:02:14;;;;;;;1.75;1.58;;;19.80;60.00;;;;;;5099085;28;20024;-39
2023/10/19 13:04:42;;;;;;;2.33;1.80;;;19.90;60.20;;;;;;5098122;28;20042;-40
2023/10/19 13:07:10;;;;;;;2.38;2.00;;;19.90;60.10;;;;;;5097811;28;20043;-40
2023/10/19 13:09:36;;;;;;;1.77;1.58;;;19.90;59.80;;;;;;5096461;28;20036;-40
2023/10/19 13:12:07;;;;;;;2.65;1.83;;;19.80;59.70;;;;;;5098996;28;20050;-40
2023/10/19 13:14:34;;;;;;;1.73;1.60;;;19.80;59.60;;;;;;5095407;28;20082;-40
2023/10/19 13:17:00;;;;;;;2.22;1.80;;;19.80;59.70;;;;;;5094218;28;20083;-40
2023/10/19 13:19:26;;;;;;;2.00;1.80;;;19.80;59.90;;;;;;5094508;28;20053;-40
2023/10/19 13:21:54;;;;;;;1.90;1.70;;;19.90;60.20;;;;;;5092815;28;20039;-40
2023/10/19 13:24:20;;;;;;;2.03;1.70;;;19.90;60.20;;;;;;5101520;28;20036;-40
2023/10/19 13:26:47;;;;;;;1.95;1.60;;;19.90;60.00;;;;;;5086955;28;20500;-40